Terminal Aerodrome Forecast
Issued by NWS

Current Version | Previous Version | Graphics & Text | Print | Product List | Glossary On
Versions: 1 2 3 4 5 6 7 8 9 10 11 12 13 14 15 16 17 18
724
FTUS41 KPBZ 242338
TAFHLG
TAF
KHLG 242338Z 2500/2524 19005KT P6SM BKN250
     FM250400 18005KT P6SM VCSH BKN050
     FM251300 22007KT P6SM VCTS BKN040CB=

USA.gov is the U.S. government's official web portal to all federal, state and local government web resources and services.